createdAt,value
2018-11-23T00:01:30.392Z,3.60
2018-11-23T00:07:35.050Z,3.70
2018-11-23T00:13:39.690Z,3.70
2018-11-23T00:19:44.694Z,3.70
2018-11-23T00:25:49.958Z,3.70
2018-11-23T00:31:55.386Z,3.80
2018-11-23T00:38:00.729Z,3.80
2018-11-23T00:44:06.268Z,3.70
2018-11-23T00:50:13.797Z,3.70
2018-11-23T00:56:19.551Z,3.80
2018-11-23T01:02:24.287Z,3.80
2018-11-23T01:08:29.845Z,3.80
2018-11-23T01:14:35.234Z,3.90
2018-11-23T01:20:39.956Z,3.90
2018-11-23T01:26:44.620Z,3.90
2018-11-23T01:32:49.394Z,3.90
2018-11-23T01:38:54.064Z,3.90
2018-11-23T01:44:58.805Z,3.90
2018-11-23T01:51:03.491Z,3.80
2018-11-23T01:57:08.229Z,3.80
2018-11-23T02:03:12.917Z,3.80
2018-11-23T02:09:17.604Z,3.80
2018-11-23T02:15:23.205Z,3.80
2018-11-23T02:21:27.860Z,3.70
2018-11-23T02:27:32.571Z,3.70
2018-11-23T02:33:40.327Z,3.60
2018-11-23T02:39:45.444Z,3.70
2018-11-23T02:45:50.468Z,3.70
2018-11-23T02:51:55.863Z,3.70
2018-11-23T02:58:00.512Z,3.70
2018-11-23T03:04:05.804Z,3.70
2018-11-23T03:10:12.299Z,3.70
2018-11-23T03:16:17.034Z,3.70
2018-11-23T03:22:21.750Z,3.70
2018-11-23T03:28:26.400Z,3.70
2018-11-23T03:34:31.048Z,3.70
2018-11-23T03:40:35.708Z,3.70
2018-11-23T03:46:40.367Z,3.60
2018-11-23T03:52:45.499Z,3.50
2018-11-23T03:58:51.299Z,3.40
2018-11-23T04:04:56.849Z,3.40
2018-11-23T04:11:01.495Z,3.40
2018-11-23T04:17:06.837Z,3.50
2018-11-23T04:23:11.469Z,3.40
2018-11-23T04:29:16.113Z,3.40
2018-11-23T04:35:21.595Z,3.50
2018-11-23T04:41:26.245Z,3.40
2018-11-23T04:47:31.143Z,3.40
2018-11-23T04:53:35.822Z,3.40
2018-11-23T04:59:40.473Z,3.40
2018-11-23T05:05:45.115Z,3.40
2018-11-23T05:11:50.290Z,3.30
2018-11-23T05:17:54.578Z,3.30
2018-11-23T05:23:59.755Z,3.30
2018-11-23T05:30:05.016Z,3.40
2018-11-23T05:36:10.396Z,3.30
2018-11-23T05:42:15.275Z,3.40
2018-11-23T05:48:26.786Z,3.40
2018-11-23T05:54:25.885Z,3.50
2018-11-23T06:00:31.690Z,3.40
2018-11-23T06:06:42.267Z,3.40
2018-11-23T06:12:43.133Z,3.40
2018-11-23T06:18:48.199Z,3.40
2018-11-23T06:24:52.895Z,3.40
2018-11-23T06:30:57.562Z,3.40
2018-11-23T06:37:02.267Z,3.30
2018-11-23T06:43:07.440Z,3.30
2018-11-23T06:49:12.141Z,3.30
2018-11-23T06:55:16.856Z,3.30
2018-11-23T07:01:21.518Z,3.40
2018-11-23T07:07:26.550Z,3.40
2018-11-23T07:13:32.810Z,3.50
2018-11-23T07:19:37.570Z,3.40
2018-11-23T07:25:42.284Z,3.50
2018-11-23T07:31:47.062Z,3.60
2018-11-23T07:37:52.593Z,3.60
2018-11-23T07:43:57.925Z,3.60
2018-11-23T07:50:02.648Z,3.70
2018-11-23T07:56:07.730Z,3.80
2018-11-23T08:02:13.542Z,3.90
2018-11-23T08:08:18.282Z,3.90
2018-11-23T08:14:23.821Z,4.00
2018-11-23T08:20:28.481Z,4.00
2018-11-23T08:26:33.128Z,4.10
2018-11-23T08:32:38.103Z,4.20
2018-11-23T08:38:42.775Z,4.30
2018-11-23T08:44:47.859Z,4.30
2018-11-23T08:50:52.611Z,4.30
2018-11-23T08:56:57.611Z,4.40
2018-11-23T09:03:03.483Z,4.30
2018-11-23T09:09:11.491Z,4.20
2018-11-23T09:15:17.531Z,4.20
2018-11-23T09:21:21.860Z,4.20
2018-11-23T09:27:26.879Z,4.30
2018-11-23T09:33:31.561Z,4.40
2018-11-23T09:39:37.286Z,4.40
2018-11-23T09:45:41.910Z,4.50
2018-11-23T09:51:46.627Z,4.50
2018-11-23T09:57:51.964Z,4.60
2018-11-23T10:03:56.674Z,4.50
2018-11-23T10:10:01.326Z,4.60
2018-11-23T10:16:06.032Z,4.80
2018-11-23T10:22:11.333Z,4.90
2018-11-23T10:28:16.399Z,5.10
2018-11-23T10:34:21.045Z,5.30
2018-11-23T10:40:27.455Z,5.30
2018-11-23T10:46:32.286Z,5.40
2018-11-23T10:52:37.391Z,5.50
2018-11-23T10:58:42.056Z,5.60
2018-11-23T11:04:53.806Z,5.60
2018-11-23T11:10:58.850Z,5.50
2018-11-23T11:17:03.652Z,5.80
2018-11-23T11:23:08.387Z,5.50
2018-11-23T11:29:13.514Z,5.50
2018-11-23T11:35:18.192Z,5.70
2018-11-23T11:41:22.944Z,5.70
2018-11-23T11:47:28.279Z,5.50
2018-11-23T11:53:32.943Z,5.70
2018-11-23T11:59:37.628Z,5.90
2018-11-23T12:05:42.656Z,5.80
2018-11-23T12:11:47.950Z,5.80
2018-11-23T12:17:53.059Z,5.90
2018-11-23T12:23:58.192Z,5.90
2018-11-23T12:30:04.160Z,5.90
2018-11-23T12:36:08.966Z,6.00
2018-11-23T12:42:13.704Z,6.00
2018-11-23T12:48:18.487Z,6.00
2018-11-23T12:54:23.260Z,5.70
2018-11-23T13:00:29.067Z,5.70
2018-11-23T13:06:34.116Z,5.70
2018-11-23T13:12:39.203Z,5.80
2018-11-23T13:18:44.150Z,5.80
2018-11-23T13:24:49.281Z,5.80
2018-11-23T13:30:54.014Z,5.80
2018-11-23T13:36:58.711Z,5.90
2018-11-23T13:43:03.457Z,5.70
2018-11-23T13:49:08.185Z,5.60
2018-11-23T13:55:13.718Z,5.60
2018-11-23T14:01:18.852Z,5.60
2018-11-23T14:07:23.596Z,5.60
2018-11-23T14:13:28.379Z,5.60
2018-11-23T14:19:33.098Z,5.50
2018-11-23T14:25:38.207Z,5.40
2018-11-23T14:31:42.930Z,5.20
2018-11-23T14:37:48.904Z,5.10
2018-11-23T14:43:54.111Z,5.00
2018-11-23T14:49:59.605Z,4.90
2018-11-23T14:56:04.328Z,4.90
2018-11-23T15:02:08.991Z,4.80
2018-11-23T15:08:13.791Z,4.80
2018-11-23T15:14:18.473Z,4.70
2018-11-23T15:20:26.840Z,4.60
2018-11-23T15:26:31.537Z,4.50
2018-11-23T15:32:36.657Z,4.40
2018-11-23T15:38:41.785Z,4.40
2018-11-23T15:44:46.516Z,4.40
2018-11-23T15:50:51.535Z,4.40
2018-11-23T15:56:56.237Z,4.30
2018-11-23T16:03:01.001Z,4.30
2018-11-23T16:09:10.082Z,4.30
2018-11-23T16:15:14.789Z,4.30
2018-11-23T16:21:19.822Z,4.20
2018-11-23T16:27:24.635Z,4.30
2018-11-23T16:33:29.320Z,4.20
2018-11-23T16:39:34.065Z,4.10
2018-11-23T16:45:39.319Z,4.10
2018-11-23T16:51:44.414Z,4.10
2018-11-23T16:57:50.962Z,4.10
2018-11-23T17:03:55.637Z,4.10
2018-11-23T17:10:00.428Z,4.00
2018-11-23T17:16:05.435Z,4.00
2018-11-23T17:22:10.898Z,4.00
2018-11-23T17:28:16.197Z,4.10
2018-11-23T17:34:20.898Z,4.10
2018-11-23T17:40:27.057Z,4.10
2018-11-23T17:46:32.675Z,4.10
2018-11-23T17:52:38.267Z,3.90
2018-11-23T17:58:43.201Z,3.90
2018-11-23T18:04:48.196Z,4.00
2018-11-23T18:10:53.627Z,4.00
2018-11-23T18:16:58.549Z,4.00
2018-11-23T18:23:03.949Z,3.80
2018-11-23T18:29:08.962Z,3.80
2018-11-23T18:35:15.408Z,3.80
2018-11-23T18:41:20.541Z,3.80
2018-11-23T18:47:25.595Z,3.70
2018-11-23T18:53:30.301Z,3.70
2018-11-23T18:59:35.512Z,3.70
2018-11-23T19:05:40.662Z,3.70
2018-11-23T19:11:45.393Z,3.70
2018-11-23T19:17:50.146Z,3.70
2018-11-23T19:23:54.908Z,3.80
2018-11-23T19:29:59.991Z,3.80
2018-11-23T19:36:05.712Z,3.90
2018-11-23T19:42:10.457Z,3.80
2018-11-23T19:48:15.112Z,3.80
2018-11-23T19:54:20.535Z,3.80
2018-11-23T20:00:27.787Z,3.80
2018-11-23T20:06:32.508Z,3.80
2018-11-23T20:12:37.325Z,3.80
2018-11-23T20:18:42.801Z,3.70
2018-11-23T20:24:47.549Z,3.70
2018-11-23T20:30:52.996Z,3.70
2018-11-23T20:36:57.768Z,3.60
2018-11-23T20:43:02.602Z,3.60
2018-11-23T20:49:07.478Z,3.60
2018-11-23T20:55:24.628Z,3.60
2018-11-23T21:01:29.404Z,3.60
2018-11-23T21:07:34.511Z,3.50
2018-11-23T21:13:39.291Z,3.50
2018-11-23T21:19:44.025Z,3.50
2018-11-23T21:25:49.356Z,3.40
2018-11-23T21:31:54.404Z,3.40
2018-11-23T21:37:59.218Z,3.40
2018-11-23T21:44:04.337Z,3.40
2018-11-23T21:50:15.367Z,3.50
2018-11-23T21:56:20.442Z,3.40
2018-11-23T22:02:25.620Z,3.40
2018-11-23T22:08:30.960Z,3.40
2018-11-23T22:14:35.808Z,3.40
2018-11-23T22:20:40.570Z,3.30
2018-11-23T22:26:45.280Z,3.20
2018-11-23T22:32:50.898Z,3.30
2018-11-23T22:38:55.639Z,3.20
2018-11-23T22:45:00.362Z,3.30
2018-11-23T22:51:05.401Z,3.30
2018-11-23T22:57:11.723Z,3.30
2018-11-23T23:03:15.702Z,3.40
2018-11-23T23:09:20.754Z,3.30
2018-11-23T23:15:25.823Z,3.40
2018-11-23T23:21:30.564Z,3.40
2018-11-23T23:27:36.304Z,3.40
2018-11-23T23:33:41.026Z,3.40
2018-11-23T23:39:46.052Z,3.40
2018-11-23T23:45:51.093Z,3.30
2018-11-23T23:51:55.836Z,3.20
2018-11-23T23:58:01.476Z,3.20
